createdAt,value
2023-03-24T05:21:08.595Z,48
2023-03-24T05:26:10.916Z,48
2023-03-24T05:31:15.629Z,48
2023-03-24T05:36:18.443Z,48
2023-03-24T05:41:20.522Z,49
2023-03-24T05:46:27.359Z,49
2023-03-24T05:51:30.344Z,49
2023-03-24T05:56:33.343Z,48
2023-03-24T06:01:37.042Z,48
2023-03-24T06:06:39.203Z,47
2023-03-24T06:11:42.046Z,46
2023-03-24T06:16:44.330Z,46
2023-03-24T06:21:48.691Z,45
2023-03-24T06:26:51.706Z,45
2023-03-24T06:31:53.802Z,45
2023-03-24T06:36:55.951Z,45
2023-03-24T06:41:58.841Z,45
2023-03-24T06:47:01.165Z,45
2023-03-24T06:52:04.255Z,45
2023-03-24T06:57:06.960Z,45
2023-03-24T07:02:09.174Z,46
2023-03-24T07:07:38.465Z,46
2023-03-24T07:12:14.575Z,46
2023-03-24T07:17:15.515Z,46
2023-03-24T07:22:19.235Z,46
2023-03-24T07:27:21.306Z,46
2023-03-24T07:32:23.441Z,46
2023-03-24T07:37:25.784Z,46
2023-03-24T07:42:27.846Z,46
2023-03-24T07:47:30.754Z,46
2023-03-24T07:52:33.686Z,46
2023-03-24T07:57:35.900Z,46
2023-03-24T08:02:38.233Z,46
2023-03-24T08:07:43.587Z,46
2023-03-24T08:12:46.649Z,46
2023-03-24T08:17:50.289Z,46
2023-03-24T08:22:53.133Z,46
2023-03-24T08:27:56.153Z,46
2023-03-24T08:32:59.219Z,45
2023-03-24T08:38:04.645Z,45
2023-03-24T08:43:07.426Z,45
2023-03-24T08:48:10.468Z,45
2023-03-24T08:53:13.252Z,45
2023-03-24T08:58:15.347Z,45
2023-03-24T09:03:18.995Z,46
2023-03-24T09:08:21.179Z,46
2023-03-24T09:13:23.245Z,46
2023-03-24T09:18:26.113Z,46
2023-03-24T09:23:28.274Z,46
2023-03-24T09:28:30.531Z,46
2023-03-24T09:33:33.373Z,46
2023-03-24T09:38:36.524Z,46
2023-03-24T09:43:38.721Z,46
2023-03-24T09:48:41.759Z,46
2023-03-24T09:53:43.868Z,46
2023-03-24T09:58:52.808Z,46
2023-03-24T10:03:54.982Z,46
2023-03-24T10:09:00.359Z,46
2023-03-24T10:14:03.857Z,46
2023-03-24T10:19:06.043Z,46
2023-03-24T10:24:08.194Z,46
2023-03-24T10:29:10.319Z,46
2023-03-24T10:34:12.465Z,46
2023-03-24T10:39:19.888Z,46
2023-03-24T10:44:18.465Z,46
2023-03-24T10:49:20.650Z,46
2023-03-24T10:54:22.825Z,46
2023-03-24T10:59:24.965Z,45
2023-03-24T11:04:27.233Z,45
2023-03-24T11:09:29.671Z,45
2023-03-24T11:14:37.758Z,45
2023-03-24T11:19:39.879Z,45
2023-03-24T11:24:42.052Z,45
2023-03-24T11:29:44.157Z,45
2023-03-24T11:34:46.293Z,45
2023-03-24T11:39:49.945Z,45
2023-03-24T11:44:55.414Z,45
2023-03-24T11:49:57.477Z,45
2023-03-24T11:54:59.639Z,45
2023-03-24T12:00:01.731Z,45
2023-03-24T12:05:03.863Z,45
2023-03-24T12:10:06.201Z,45
2023-03-24T12:15:17.552Z,45
2023-03-24T12:20:12.293Z,45
2023-03-24T12:25:19.289Z,45
2023-03-24T12:30:22.118Z,45
2023-03-24T12:35:24.301Z,45
2023-03-24T12:40:26.582Z,45
2023-03-24T12:45:28.582Z,46
2023-03-24T12:50:31.585Z,46
2023-03-24T12:55:33.736Z,46
2023-03-24T13:00:35.852Z,46
2023-03-24T13:05:38.095Z,46
2023-03-24T13:10:41.110Z,46
2023-03-24T13:15:43.077Z,46
2023-03-24T13:20:45.205Z,46
2023-03-24T13:25:47.534Z,46
2023-03-24T13:30:54.070Z,46
2023-03-24T13:35:56.538Z,46
2023-03-24T13:41:01.636Z,46
2023-03-24T13:46:03.868Z,46
2023-03-24T13:51:07.563Z,45
2023-03-24T13:56:10.533Z,45
2023-03-24T14:01:17.345Z,45
2023-03-24T14:06:19.423Z,45
2023-03-24T14:11:21.723Z,45
2023-03-24T14:16:25.262Z,45
2023-03-24T14:21:28.140Z,46
2023-03-24T14:26:31.269Z,46
2023-03-24T14:31:33.360Z,46
2023-03-24T14:36:40.535Z,46
2023-03-24T14:41:43.412Z,47
2023-03-24T14:46:45.533Z,47
2023-03-24T14:51:47.835Z,47
2023-03-24T14:56:51.488Z,47
2023-03-24T15:01:54.328Z,47
2023-03-24T15:06:56.456Z,46
2023-03-24T15:12:00.122Z,46
2023-03-24T15:17:02.232Z,46
2023-03-24T15:22:04.368Z,46
2023-03-24T15:27:06.664Z,46
2023-03-24T15:32:10.314Z,45
2023-03-24T15:37:13.262Z,45
2023-03-24T15:42:16.316Z,45
2023-03-24T15:47:20.819Z,45
2023-03-24T15:52:23.756Z,45
2023-03-24T15:57:25.891Z,45
2023-03-24T16:02:28.791Z,46
2023-03-24T16:07:35.554Z,46
2023-03-24T16:12:43.926Z,46
2023-03-24T16:17:46.893Z,46
2023-03-24T16:22:49.837Z,46
2023-03-24T16:27:51.993Z,46
2023-03-24T16:32:55.127Z,46
2023-03-24T16:37:57.887Z,46
2023-03-24T16:43:00.253Z,46
2023-03-24T16:48:03.394Z,46
2023-03-24T16:53:06.283Z,46
2023-03-24T16:58:10.721Z,46
2023-03-24T17:03:13.091Z,46
2023-03-24T17:08:15.198Z,46
2023-03-24T17:13:17.372Z,46
2023-03-24T17:18:19.472Z,46
2023-03-24T17:23:21.622Z,46
2023-03-24T17:28:28.567Z,46
2023-03-24T17:33:31.334Z,46
2023-03-24T17:38:33.527Z,46
2023-03-24T17:43:35.654Z,46
2023-03-24T17:48:38.565Z,45
2023-03-24T17:53:41.458Z,45
2023-03-24T17:58:43.637Z,45
2023-03-24T18:03:45.950Z,44
2023-03-24T18:08:48.756Z,44
2023-03-24T18:13:51.702Z,43
2023-03-24T18:18:53.984Z,43
2023-03-24T18:23:56.021Z,43
2023-03-24T18:28:59.005Z,44
2023-03-24T18:34:01.862Z,45
2023-03-24T18:39:04.727Z,45
2023-03-24T18:44:06.925Z,45
2023-03-24T18:49:09.022Z,45
2023-03-24T18:54:11.912Z,45
2023-03-24T18:59:14.176Z,44
2023-03-24T19:04:16.198Z,43
2023-03-24T19:09:19.181Z,43
2023-03-24T19:14:21.342Z,42
2023-03-24T19:19:23.517Z,42
2023-03-24T19:24:25.637Z,42
2023-03-24T19:29:27.781Z,42
2023-03-24T19:34:29.884Z,42
2023-03-24T19:39:32.933Z,42
2023-03-24T19:44:35.091Z,42
2023-03-24T19:49:37.211Z,42
2023-03-24T19:54:40.097Z,42
2023-03-24T19:59:42.240Z,43
2023-03-24T20:04:44.343Z,43
2023-03-24T20:09:46.640Z,43
2023-03-24T20:14:49.824Z,44
2023-03-24T20:19:52.798Z,44
2023-03-24T20:24:54.875Z,44
2023-03-24T20:29:57.240Z,44
2023-03-24T20:35:00.089Z,45
2023-03-24T20:40:02.518Z,45
2023-03-24T20:45:07.742Z,45
2023-03-24T20:50:09.817Z,45
2023-03-24T20:55:16.912Z,45
2023-03-24T21:00:19.072Z,45
2023-03-24T21:05:22.032Z,45
2023-03-24T21:10:24.090Z,45
2023-03-24T21:15:26.356Z,45
2023-03-24T21:20:28.429Z,45
2023-03-24T21:25:31.300Z,45
2023-03-24T21:30:33.476Z,45
2023-03-24T21:35:35.730Z,45
2023-03-24T21:40:37.835Z,45
2023-03-24T21:45:39.995Z,44
2023-03-24T21:50:48.196Z,44
2023-03-24T21:55:50.753Z,43
2023-03-24T22:00:54.099Z,43
2023-03-24T22:05:56.208Z,43
2023-03-24T22:10:58.356Z,43
2023-03-24T22:16:01.281Z,43
2023-03-24T22:21:04.413Z,44
2023-03-24T22:26:06.376Z,44
2023-03-24T22:31:09.802Z,44
2023-03-24T22:36:12.932Z,44
2023-03-24T22:41:15.239Z,44
2023-03-24T22:46:17.503Z,43
2023-03-24T22:51:20.305Z,43
2023-03-24T22:56:22.611Z,42
2023-03-24T23:01:27.175Z,42
2023-03-24T23:06:29.247Z,42
2023-03-24T23:11:35.403Z,41
2023-03-24T23:16:37.803Z,41
2023-03-24T23:21:39.766Z,41
2023-03-24T23:26:46.673Z,41
2023-03-24T23:31:48.845Z,41
2023-03-24T23:36:50.937Z,41
2023-03-24T23:41:53.834Z,41
2023-03-24T23:46:58.575Z,41
